sensor_id;sensor_type;location;lat;lon;timestamp;P1;durP1;ratioP1;P2;durP2;ratioP2
26536;SDS011;14204;51.262;5.488;2023-07-31T00:00:12;20.13;;;7.28;;
26536;SDS011;14204;51.262;5.488;2023-07-31T00:02:38;17.10;;;6.78;;
26536;SDS011;14204;51.262;5.488;2023-07-31T00:05:04;17.33;;;7.10;;
26536;SDS011;14204;51.262;5.488;2023-07-31T00:07:30;20.42;;;7.32;;
26536;SDS011;14204;51.262;5.488;2023-07-31T00:09:57;17.55;;;6.60;;
26536;SDS011;14204;51.262;5.488;2023-07-31T00:12:23;22.58;;;7.30;;
26536;SDS011;14204;51.262;5.488;2023-07-31T00:14:49;17.05;;;7.13;;
26536;SDS011;14204;51.262;5.488;2023-07-31T00:17:17;23.02;;;7.30;;
26536;SDS011;14204;51.262;5.488;2023-07-31T00:19:43;22.30;;;6.43;;
26536;SDS011;14204;51.262;5.488;2023-07-31T00:22:11;15.10;;;5.70;;
26536;SDS011;14204;51.262;5.488;2023-07-31T00:24:36;18.08;;;6.30;;
26536;SDS011;14204;51.262;5.488;2023-07-31T00:27:02;18.92;;;6.30;;
26536;SDS011;14204;51.262;5.488;2023-07-31T00:29:28;15.73;;;5.97;;
26536;SDS011;14204;51.262;5.488;2023-07-31T00:31:54;15.00;;;6.03;;
26536;SDS011;14204;51.262;5.488;2023-07-31T00:34:19;20.63;;;6.07;;
26536;SDS011;14204;51.262;5.488;2023-07-31T00:36:45;16.17;;;6.07;;
26536;SDS011;14204;51.262;5.488;2023-07-31T00:39:11;14.73;;;6.03;;
26536;SDS011;14204;51.262;5.488;2023-07-31T00:41:36;22.05;;;6.32;;
26536;SDS011;14204;51.262;5.488;2023-07-31T00:44:02;21.25;;;6.68;;
26536;SDS011;14204;51.262;5.488;2023-07-31T00:46:28;20.17;;;5.90;;
26536;SDS011;14204;51.262;5.488;2023-07-31T00:48:54;15.85;;;6.25;;
26536;SDS011;14204;51.262;5.488;2023-07-31T00:51:19;23.95;;;5.95;;
26536;SDS011;14204;51.262;5.488;2023-07-31T00:53:45;13.65;;;5.45;;
26536;SDS011;14204;51.262;5.488;2023-07-31T00:56:12;17.60;;;6.28;;
26536;SDS011;14204;51.262;5.488;2023-07-31T00:58:38;17.08;;;5.80;;
26536;SDS011;14204;51.262;5.488;2023-07-31T01:01:04;21.95;;;6.93;;
26536;SDS011;14204;51.262;5.488;2023-07-31T01:03:30;19.33;;;6.05;;
26536;SDS011;14204;51.262;5.488;2023-07-31T01:08:54;18.10;;;6.18;;
26536;SDS011;14204;51.262;5.488;2023-07-31T01:11:43;15.55;;;6.38;;
26536;SDS011;14204;51.262;5.488;2023-07-31T01:14:17;16.95;;;6.50;;
26536;SDS011;14204;51.262;5.488;2023-07-31T01:16:42;18.20;;;6.43;;
26536;SDS011;14204;51.262;5.488;2023-07-31T01:19:08;11.73;;;5.72;;
26536;SDS011;14204;51.262;5.488;2023-07-31T01:24:19;16.25;;;5.88;;
26536;SDS011;14204;51.262;5.488;2023-07-31T01:27:04;16.08;;;6.47;;
26536;SDS011;14204;51.262;5.488;2023-07-31T01:32:03;17.88;;;6.30;;
26536;SDS011;14204;51.262;5.488;2023-07-31T01:34:31;18.30;;;6.32;;
26536;SDS011;14204;51.262;5.488;2023-07-31T01:36:58;20.00;;;7.35;;
26536;SDS011;14204;51.262;5.488;2023-07-31T01:39:24;19.85;;;6.53;;
26536;SDS011;14204;51.262;5.488;2023-07-31T01:41:50;15.60;;;6.13;;
26536;SDS011;14204;51.262;5.488;2023-07-31T01:44:16;19.67;;;6.47;;
26536;SDS011;14204;51.262;5.488;2023-07-31T01:46:41;20.48;;;7.53;;
26536;SDS011;14204;51.262;5.488;2023-07-31T01:49:07;20.40;;;6.43;;
26536;SDS011;14204;51.262;5.488;2023-07-31T01:51:33;17.67;;;6.82;;
26536;SDS011;14204;51.262;5.488;2023-07-31T01:54:01;22.42;;;6.28;;
26536;SDS011;14204;51.262;5.488;2023-07-31T01:56:27;21.55;;;7.00;;
26536;SDS011;14204;51.262;5.488;2023-07-31T01:58:53;14.77;;;6.28;;
26536;SDS011;14204;51.262;5.488;2023-07-31T02:01:18;19.00;;;6.53;;
26536;SDS011;14204;51.262;5.488;2023-07-31T02:03:44;19.27;;;6.57;;
26536;SDS011;14204;51.262;5.488;2023-07-31T02:06:10;18.83;;;6.45;;
26536;SDS011;14204;51.262;5.488;2023-07-31T02:08:35;19.33;;;6.20;;
26536;SDS011;14204;51.262;5.488;2023-07-31T02:11:01;21.08;;;6.30;;
26536;SDS011;14204;51.262;5.488;2023-07-31T02:13:27;19.30;;;6.22;;
26536;SDS011;14204;51.262;5.488;2023-07-31T02:15:52;16.83;;;6.43;;
26536;SDS011;14204;51.262;5.488;2023-07-31T02:18:18;20.85;;;6.63;;
26536;SDS011;14204;51.262;5.488;2023-07-31T02:20:48;18.83;;;7.30;;
26536;SDS011;14204;51.262;5.488;2023-07-31T02:23:15;18.75;;;6.53;;
26536;SDS011;14204;51.262;5.488;2023-07-31T02:25:40;27.40;;;7.47;;
26536;SDS011;14204;51.262;5.488;2023-07-31T02:28:06;22.10;;;6.30;;
26536;SDS011;14204;51.262;5.488;2023-07-31T02:30:32;14.38;;;5.97;;
26536;SDS011;14204;51.262;5.488;2023-07-31T02:32:57;21.38;;;7.10;;
26536;SDS011;14204;51.262;5.488;2023-07-31T02:35:23;16.80;;;6.47;;
26536;SDS011;14204;51.262;5.488;2023-07-31T02:37:48;15.20;;;5.82;;
26536;SDS011;14204;51.262;5.488;2023-07-31T02:40:14;21.17;;;6.65;;
26536;SDS011;14204;51.262;5.488;2023-07-31T02:42:40;22.90;;;7.38;;
26536;SDS011;14204;51.262;5.488;2023-07-31T02:45:05;19.00;;;7.32;;
26536;SDS011;14204;51.262;5.488;2023-07-31T02:47:32;15.23;;;6.30;;
26536;SDS011;14204;51.262;5.488;2023-07-31T02:49:57;19.15;;;6.97;;
26536;SDS011;14204;51.262;5.488;2023-07-31T02:52:24;20.38;;;6.13;;
26536;SDS011;14204;51.262;5.488;2023-07-31T02:54:50;18.23;;;6.72;;
26536;SDS011;14204;51.262;5.488;2023-07-31T02:57:15;18.35;;;6.63;;
26536;SDS011;14204;51.262;5.488;2023-07-31T02:59:41;18.00;;;7.50;;
26536;SDS011;14204;51.262;5.488;2023-07-31T03:02:07;19.60;;;6.68;;
26536;SDS011;14204;51.262;5.488;2023-07-31T03:04:32;18.52;;;6.95;;
26536;SDS011;14204;51.262;5.488;2023-07-31T03:06:58;21.50;;;6.45;;
26536;SDS011;14204;51.262;5.488;2023-07-31T03:09:24;16.65;;;6.65;;
26536;SDS011;14204;51.262;5.488;2023-07-31T03:11:49;16.10;;;6.53;;
26536;SDS011;14204;51.262;5.488;2023-07-31T03:14:15;21.15;;;7.00;;
26536;SDS011;14204;51.262;5.488;2023-07-31T03:16:41;15.80;;;6.30;;
26536;SDS011;14204;51.262;5.488;2023-07-31T03:19:06;19.95;;;6.65;;
26536;SDS011;14204;51.262;5.488;2023-07-31T03:21:32;20.77;;;7.75;;
26536;SDS011;14204;51.262;5.488;2023-07-31T03:23:58;15.77;;;7.70;;
26536;SDS011;14204;51.262;5.488;2023-07-31T03:26:23;19.40;;;8.20;;
26536;SDS011;14204;51.262;5.488;2023-07-31T03:28:49;15.70;;;6.57;;
26536;SDS011;14204;51.262;5.488;2023-07-31T03:31:15;20.13;;;7.65;;
26536;SDS011;14204;51.262;5.488;2023-07-31T03:33:40;20.02;;;7.18;;
26536;SDS011;14204;51.262;5.488;2023-07-31T03:36:06;19.90;;;6.60;;
26536;SDS011;14204;51.262;5.488;2023-07-31T03:38:33;15.63;;;6.57;;
26536;SDS011;14204;51.262;5.488;2023-07-31T03:40:59;17.20;;;7.07;;
26536;SDS011;14204;51.262;5.488;2023-07-31T03:43:25;20.77;;;7.28;;
26536;SDS011;14204;51.262;5.488;2023-07-31T03:45:51;13.15;;;6.85;;
26536;SDS011;14204;51.262;5.488;2023-07-31T03:48:16;15.55;;;6.40;;
26536;SDS011;14204;51.262;5.488;2023-07-31T03:50:42;20.95;;;6.97;;
26536;SDS011;14204;51.262;5.488;2023-07-31T03:53:08;17.50;;;6.38;;
26536;SDS011;14204;51.262;5.488;2023-07-31T03:55:34;15.90;;;6.95;;
26536;SDS011;14204;51.262;5.488;2023-07-31T03:57:59;10.80;;;6.43;;
26536;SDS011;14204;51.262;5.488;2023-07-31T04:00:26;16.95;;;6.28;;
26536;SDS011;14204;51.262;5.488;2023-07-31T04:02:52;18.50;;;6.30;;
26536;SDS011;14204;51.262;5.488;2023-07-31T04:05:18;19.10;;;7.95;;
26536;SDS011;14204;51.262;5.488;2023-07-31T04:07:43;15.45;;;6.47;;
26536;SDS011;14204;51.262;5.488;2023-07-31T04:10:09;15.82;;;6.63;;
26536;SDS011;14204;51.262;5.488;2023-07-31T04:12:35;11.98;;;6.78;;
26536;SDS011;14204;51.262;5.488;2023-07-31T04:15:00;18.83;;;6.70;;
26536;SDS011;14204;51.262;5.488;2023-07-31T04:17:26;17.10;;;6.60;;
26536;SDS011;14204;51.262;5.488;2023-07-31T04:19:52;14.15;;;6.38;;
26536;SDS011;14204;51.262;5.488;2023-07-31T04:22:18;19.40;;;6.88;;
26536;SDS011;14204;51.262;5.488;2023-07-31T04:24:43;12.90;;;5.88;;
26536;SDS011;14204;51.262;5.488;2023-07-31T04:27:09;13.63;;;6.45;;
26536;SDS011;14204;51.262;5.488;2023-07-31T04:29:35;16.65;;;6.60;;
26536;SDS011;14204;51.262;5.488;2023-07-31T04:32:01;14.65;;;6.72;;
26536;SDS011;14204;51.262;5.488;2023-07-31T04:34:26;14.82;;;7.18;;
26536;SDS011;14204;51.262;5.488;2023-07-31T04:36:52;10.90;;;6.35;;
26536;SDS011;14204;51.262;5.488;2023-07-31T04:39:18;14.57;;;7.10;;
26536;SDS011;14204;51.262;5.488;2023-07-31T04:41:43;18.00;;;7.18;;
26536;SDS011;14204;51.262;5.488;2023-07-31T04:44:09;13.48;;;7.13;;
26536;SDS011;14204;51.262;5.488;2023-07-31T04:46:36;14.35;;;6.80;;
26536;SDS011;14204;51.262;5.488;2023-07-31T04:49:02;14.48;;;6.13;;
26536;SDS011;14204;51.262;5.488;2023-07-31T04:51:28;14.88;;;7.18;;
26536;SDS011;14204;51.262;5.488;2023-07-31T04:53:54;12.82;;;7.05;;
26536;SDS011;14204;51.262;5.488;2023-07-31T04:56:19;18.05;;;7.45;;
26536;SDS011;14204;51.262;5.488;2023-07-31T04:58:45;14.77;;;7.50;;
26536;SDS011;14204;51.262;5.488;2023-07-31T05:01:11;15.63;;;7.25;;
26536;SDS011;14204;51.262;5.488;2023-07-31T05:03:37;23.90;;;8.77;;
26536;SDS011;14204;51.262;5.488;2023-07-31T05:06:02;13.25;;;7.38;;
26536;SDS011;14204;51.262;5.488;2023-07-31T05:08:28;18.05;;;9.23;;
26536;SDS011;14204;51.262;5.488;2023-07-31T05:10:54;19.42;;;7.32;;
26536;SDS011;14204;51.262;5.488;2023-07-31T05:13:20;13.20;;;8.10;;
26536;SDS011;14204;51.262;5.488;2023-07-31T05:15:46;17.30;;;8.00;;
26536;SDS011;14204;51.262;5.488;2023-07-31T05:18:14;17.27;;;7.65;;
26536;SDS011;14204;51.262;5.488;2023-07-31T05:20:40;15.65;;;8.68;;
26536;SDS011;14204;51.262;5.488;2023-07-31T05:23:06;16.92;;;8.07;;
26536;SDS011;14204;51.262;5.488;2023-07-31T05:25:32;13.00;;;6.80;;
26536;SDS011;14204;51.262;5.488;2023-07-31T05:27:57;15.05;;;6.68;;
26536;SDS011;14204;51.262;5.488;2023-07-31T05:30:23;9.98;;;6.80;;
26536;SDS011;14204;51.262;5.488;2023-07-31T05:32:49;11.30;;;6.70;;
26536;SDS011;14204;51.262;5.488;2023-07-31T05:35:15;13.07;;;6.65;;
26536;SDS011;14204;51.262;5.488;2023-07-31T05:37:40;11.75;;;6.95;;
26536;SDS011;14204;51.262;5.488;2023-07-31T05:40:06;10.55;;;6.35;;
26536;SDS011;14204;51.262;5.488;2023-07-31T05:42:32;9.75;;;6.13;;
26536;SDS011;14204;51.262;5.488;2023-07-31T05:44:58;9.30;;;5.53;;
26536;SDS011;14204;51.262;5.488;2023-07-31T05:47:24;12.68;;;6.75;;
26536;SDS011;14204;51.262;5.488;2023-07-31T05:49:49;10.88;;;6.15;;
26536;SDS011;14204;51.262;5.488;2023-07-31T05:52:17;11.32;;;6.35;;
26536;SDS011;14204;51.262;5.488;2023-07-31T05:54:44;12.55;;;7.60;;
26536;SDS011;14204;51.262;5.488;2023-07-31T05:57:11;13.95;;;6.57;;
26536;SDS011;14204;51.262;5.488;2023-07-31T05:59:37;17.63;;;6.55;;
26536;SDS011;14204;51.262;5.488;2023-07-31T06:02:03;9.88;;;6.40;;
26536;SDS011;14204;51.262;5.488;2023-07-31T06:04:29;12.15;;;7.00;;
26536;SDS011;14204;51.262;5.488;2023-07-31T06:06:54;9.23;;;5.38;;
26536;SDS011;14204;51.262;5.488;2023-07-31T06:09:21;12.35;;;6.55;;
26536;SDS011;14204;51.262;5.488;2023-07-31T06:11:46;12.68;;;6.65;;
26536;SDS011;14204;51.262;5.488;2023-07-31T06:14:12;12.50;;;6.78;;
26536;SDS011;14204;51.262;5.488;2023-07-31T06:16:38;14.35;;;7.00;;
26536;SDS011;14204;51.262;5.488;2023-07-31T06:19:04;11.07;;;6.35;;
26536;SDS011;14204;51.262;5.488;2023-07-31T06:21:29;12.18;;;6.65;;
26536;SDS011;14204;51.262;5.488;2023-07-31T06:23:56;10.65;;;6.57;;
26536;SDS011;14204;51.262;5.488;2023-07-31T06:26:21;11.68;;;7.25;;
26536;SDS011;14204;51.262;5.488;2023-07-31T06:28:47;13.15;;;6.70;;
26536;SDS011;14204;51.262;5.488;2023-07-31T06:31:13;9.20;;;6.22;;
26536;SDS011;14204;51.262;5.488;2023-07-31T06:33:38;13.48;;;7.25;;
26536;SDS011;14204;51.262;5.488;2023-07-31T06:36:04;12.85;;;7.32;;
26536;SDS011;14204;51.262;5.488;2023-07-31T06:38:30;10.50;;;6.15;;
26536;SDS011;14204;51.262;5.488;2023-07-31T06:40:56;9.80;;;5.43;;
26536;SDS011;14204;51.262;5.488;2023-07-31T06:43:21;7.53;;;5.40;;
26536;SDS011;14204;51.262;5.488;2023-07-31T06:45:47;8.18;;;5.40;;
26536;SDS011;14204;51.262;5.488;2023-07-31T06:48:16;8.68;;;5.78;;
26536;SDS011;14204;51.262;5.488;2023-07-31T06:50:42;8.77;;;5.43;;
26536;SDS011;14204;51.262;5.488;2023-07-31T06:53:07;9.25;;;5.45;;
26536;SDS011;14204;51.262;5.488;2023-07-31T06:55:33;8.88;;;5.03;;
26536;SDS011;14204;51.262;5.488;2023-07-31T06:57:59;11.10;;;5.80;;
26536;SDS011;14204;51.262;5.488;2023-07-31T07:00:24;10.23;;;5.57;;
26536;SDS011;14204;51.262;5.488;2023-07-31T07:02:50;9.70;;;5.35;;
26536;SDS011;14204;51.262;5.488;2023-07-31T07:05:16;9.43;;;5.30;;
26536;SDS011;14204;51.262;5.488;2023-07-31T07:07:42;8.75;;;5.60;;
26536;SDS011;14204;51.262;5.488;2023-07-31T07:10:09;7.78;;;5.88;;
26536;SDS011;14204;51.262;5.488;2023-07-31T07:12:35;8.00;;;5.65;;
26536;SDS011;14204;51.262;5.488;2023-07-31T07:15:01;7.70;;;5.60;;
26536;SDS011;14204;51.262;5.488;2023-07-31T07:17:27;8.40;;;5.38;;
26536;SDS011;14204;51.262;5.488;2023-07-31T07:19:56;8.10;;;5.20;;
26536;SDS011;14204;51.262;5.488;2023-07-31T07:22:22;11.40;;;4.85;;
26536;SDS011;14204;51.262;5.488;2023-07-31T07:24:48;9.95;;;6.28;;
26536;SDS011;14204;51.262;5.488;2023-07-31T07:27:13;9.27;;;6.10;;
26536;SDS011;14204;51.262;5.488;2023-07-31T07:29:39;9.38;;;4.88;;
26536;SDS011;14204;51.262;5.488;2023-07-31T07:32:05;7.10;;;5.20;;
26536;SDS011;14204;51.262;5.488;2023-07-31T07:34:31;8.73;;;4.80;;
26536;SDS011;14204;51.262;5.488;2023-07-31T07:36:57;9.70;;;5.35;;
26536;SDS011;14204;51.262;5.488;2023-07-31T07:39:23;12.68;;;5.20;;
26536;SDS011;14204;51.262;5.488;2023-07-31T07:41:48;9.25;;;4.82;;
26536;SDS011;14204;51.262;5.488;2023-07-31T07:44:14;8.88;;;5.05;;
26536;SDS011;14204;51.262;5.488;2023-07-31T07:46:40;7.93;;;4.80;;
26536;SDS011;14204;51.262;5.488;2023-07-31T07:49:06;11.45;;;5.05;;
26536;SDS011;14204;51.262;5.488;2023-07-31T07:51:32;9.35;;;5.35;;
26536;SDS011;14204;51.262;5.488;2023-07-31T07:53:58;9.05;;;5.55;;
26536;SDS011;14204;51.262;5.488;2023-07-31T07:56:25;12.32;;;6.65;;
26536;SDS011;14204;51.262;5.488;2023-07-31T07:58:51;11.65;;;6.38;;
26536;SDS011;14204;51.262;5.488;2023-07-31T08:01:17;7.53;;;5.80;;
26536;SDS011;14204;51.262;5.488;2023-07-31T08:03:43;9.52;;;4.88;;
26536;SDS011;14204;51.262;5.488;2023-07-31T08:06:08;12.38;;;5.85;;
26536;SDS011;14204;51.262;5.488;2023-07-31T08:08:37;12.85;;;5.85;;
26536;SDS011;14204;51.262;5.488;2023-07-31T08:11:03;13.30;;;5.65;;
26536;SDS011;14204;51.262;5.488;2023-07-31T08:13:29;13.43;;;5.80;;
26536;SDS011;14204;51.262;5.488;2023-07-31T08:15:55;13.13;;;5.25;;
26536;SDS011;14204;51.262;5.488;2023-07-31T08:18:21;9.02;;;6.10;;
26536;SDS011;14204;51.262;5.488;2023-07-31T08:20:47;13.43;;;6.13;;
26536;SDS011;14204;51.262;5.488;2023-07-31T08:23:13;11.38;;;6.30;;
26536;SDS011;14204;51.262;5.488;2023-07-31T08:25:39;14.75;;;5.72;;
26536;SDS011;14204;51.262;5.488;2023-07-31T08:28:04;13.38;;;6.35;;
26536;SDS011;14204;51.262;5.488;2023-07-31T08:30:31;13.52;;;6.10;;
26536;SDS011;14204;51.262;5.488;2023-07-31T08:32:58;11.65;;;5.80;;
26536;SDS011;14204;51.262;5.488;2023-07-31T08:35:25;9.07;;;5.97;;
26536;SDS011;14204;51.262;5.488;2023-07-31T08:37:53;13.98;;;6.97;;
26536;SDS011;14204;51.262;5.488;2023-07-31T08:40:19;11.70;;;5.93;;
26536;SDS011;14204;51.262;5.488;2023-07-31T08:42:45;9.80;;;5.75;;
26536;SDS011;14204;51.262;5.488;2023-07-31T08:45:15;10.45;;;5.85;;
26536;SDS011;14204;51.262;5.488;2023-07-31T08:47:44;9.95;;;5.43;;
26536;SDS011;14204;51.262;5.488;2023-07-31T08:50:14;9.38;;;5.35;;
26536;SDS011;14204;51.262;5.488;2023-07-31T08:52:40;11.57;;;5.32;;
26536;SDS011;14204;51.262;5.488;2023-07-31T08:55:06;9.98;;;5.63;;
26536;SDS011;14204;51.262;5.488;2023-07-31T08:57:37;9.70;;;5.28;;
26536;SDS011;14204;51.262;5.488;2023-07-31T09:00:11;8.77;;;5.22;;
26536;SDS011;14204;51.262;5.488;2023-07-31T09:02:38;11.15;;;5.88;;
26536;SDS011;14204;51.262;5.488;2023-07-31T09:05:10;11.20;;;5.90;;
26536;SDS011;14204;51.262;5.488;2023-07-31T09:07:37;10.88;;;5.90;;
26536;SDS011;14204;51.262;5.488;2023-07-31T09:10:03;8.65;;;5.43;;
26536;SDS011;14204;51.262;5.488;2023-07-31T09:12:30;13.98;;;5.97;;
26536;SDS011;14204;51.262;5.488;2023-07-31T09:14:57;9.50;;;5.13;;
26536;SDS011;14204;51.262;5.488;2023-07-31T09:17:33;12.00;;;6.07;;
26536;SDS011;14204;51.262;5.488;2023-07-31T09:20:36;11.55;;;5.07;;
26536;SDS011;14204;51.262;5.488;2023-07-31T09:27:59;9.23;;;5.00;;
26536;SDS011;14204;51.262;5.488;2023-07-31T09:30:29;9.75;;;4.82;;
26536;SDS011;14204;51.262;5.488;2023-07-31T09:33:03;7.60;;;5.13;;
26536;SDS011;14204;51.262;5.488;2023-07-31T09:35:34;8.40;;;4.88;;
26536;SDS011;14204;51.262;5.488;2023-07-31T09:38:06;9.98;;;5.25;;
26536;SDS011;14204;51.262;5.488;2023-07-31T09:40:35;7.95;;;4.55;;
26536;SDS011;14204;51.262;5.488;2023-07-31T09:43:03;9.60;;;4.65;;
26536;SDS011;14204;51.262;5.488;2023-07-31T09:45:34;8.77;;;4.38;;
26536;SDS011;14204;51.262;5.488;2023-07-31T09:48:09;8.17;;;5.10;;
26536;SDS011;14204;51.262;5.488;2023-07-31T09:50:43;11.40;;;4.72;;
26536;SDS011;14204;51.262;5.488;2023-07-31T09:53:10;10.30;;;4.88;;
26536;SDS011;14204;51.262;5.488;2023-07-31T09:55:37;11.80;;;5.22;;
26536;SDS011;14204;51.262;5.488;2023-07-31T09:58:04;6.35;;;4.65;;
26536;SDS011;14204;51.262;5.488;2023-07-31T10:00:37;28.00;;;6.20;;
26536;SDS011;14204;51.262;5.488;2023-07-31T10:03:07;6.97;;;3.90;;
26536;SDS011;14204;51.262;5.488;2023-07-31T10:05:34;4.65;;;3.50;;
26536;SDS011;14204;51.262;5.488;2023-07-31T10:08:06;9.38;;;4.50;;
26536;SDS011;14204;51.262;5.488;2023-07-31T10:10:35;19.38;;;5.30;;
26536;SDS011;14204;51.262;5.488;2023-07-31T10:13:02;9.85;;;4.45;;
26536;SDS011;14204;51.262;5.488;2023-07-31T10:15:29;8.35;;;3.83;;
26536;SDS011;14204;51.262;5.488;2023-07-31T10:17:56;7.60;;;4.03;;
26536;SDS011;14204;51.262;5.488;2023-07-31T10:20:23;4.43;;;3.85;;
26536;SDS011;14204;51.262;5.488;2023-07-31T10:22:50;4.78;;;3.53;;
26536;SDS011;14204;51.262;5.488;2023-07-31T10:25:16;6.72;;;4.00;;
26536;SDS011;14204;51.262;5.488;2023-07-31T10:27:45;7.35;;;3.47;;
26536;SDS011;14204;51.262;5.488;2023-07-31T10:30:45;6.38;;;3.35;;
26536;SDS011;14204;51.262;5.488;2023-07-31T10:33:11;6.15;;;4.22;;
26536;SDS011;14204;51.262;5.488;2023-07-31T10:35:37;5.38;;;3.35;;
26536;SDS011;14204;51.262;5.488;2023-07-31T10:38:09;6.82;;;4.03;;
26536;SDS011;14204;51.262;5.488;2023-07-31T10:40:39;5.07;;;3.65;;
26536;SDS011;14204;51.262;5.488;2023-07-31T10:43:05;5.72;;;3.55;;
26536;SDS011;14204;51.262;5.488;2023-07-31T10:45:37;6.40;;;3.83;;
26536;SDS011;14204;51.262;5.488;2023-07-31T10:48:05;7.43;;;3.97;;
26536;SDS011;14204;51.262;5.488;2023-07-31T10:50:31;5.05;;;4.18;;
26536;SDS011;14204;51.262;5.488;2023-07-31T10:53:01;5.97;;;4.18;;
26536;SDS011;14204;51.262;5.488;2023-07-31T10:55:32;7.15;;;3.75;;
26536;SDS011;14204;51.262;5.488;2023-07-31T10:58:09;7.68;;;4.32;;
26536;SDS011;14204;51.262;5.488;2023-07-31T11:00:37;8.10;;;4.57;;
26536;SDS011;14204;51.262;5.488;2023-07-31T11:03:08;6.45;;;4.18;;
26536;SDS011;14204;51.262;5.488;2023-07-31T11:05:48;7.82;;;4.15;;
26536;SDS011;14204;51.262;5.488;2023-07-31T11:08:54;8.25;;;3.90;;
26536;SDS011;14204;51.262;5.488;2023-07-31T11:11:20;5.15;;;3.60;;
26536;SDS011;14204;51.262;5.488;2023-07-31T11:16:15;6.32;;;3.58;;
26536;SDS011;14204;51.262;5.488;2023-07-31T11:18:43;4.68;;;3.30;;
26536;SDS011;14204;51.262;5.488;2023-07-31T11:21:16;6.20;;;3.28;;
26536;SDS011;14204;51.262;5.488;2023-07-31T11:23:50;10.35;;;3.92;;
26536;SDS011;14204;51.262;5.488;2023-07-31T11:26:19;6.82;;;3.60;;
26536;SDS011;14204;51.262;5.488;2023-07-31T11:28:48;5.43;;;3.30;;
26536;SDS011;14204;51.262;5.488;2023-07-31T11:31:15;5.25;;;3.20;;
26536;SDS011;14204;51.262;5.488;2023-07-31T11:33:41;6.38;;;3.42;;
26536;SDS011;14204;51.262;5.488;2023-07-31T11:36:13;4.93;;;3.22;;
26536;SDS011;14204;51.262;5.488;2023-07-31T11:38:43;4.28;;;3.17;;
26536;SDS011;14204;51.262;5.488;2023-07-31T11:41:09;6.20;;;3.53;;
26536;SDS011;14204;51.262;5.488;2023-07-31T11:43:35;4.85;;;3.35;;
26536;SDS011;14204;51.262;5.488;2023-07-31T11:46:03;4.28;;;3.15;;
26536;SDS011;14204;51.262;5.488;2023-07-31T11:48:32;6.05;;;3.75;;
26536;SDS011;14204;51.262;5.488;2023-07-31T11:51:01;5.80;;;4.13;;
26536;SDS011;14204;51.262;5.488;2023-07-31T11:53:33;7.03;;;3.67;;
26536;SDS011;14204;51.262;5.488;2023-07-31T11:56:01;6.60;;;3.90;;
26536;SDS011;14204;51.262;5.488;2023-07-31T11:58:29;6.80;;;3.97;;
26536;SDS011;14204;51.262;5.488;2023-07-31T12:00:56;7.35;;;4.80;;
26536;SDS011;14204;51.262;5.488;2023-07-31T12:03:23;7.60;;;4.10;;
26536;SDS011;14204;51.262;5.488;2023-07-31T12:05:49;7.60;;;4.55;;
26536;SDS011;14204;51.262;5.488;2023-07-31T12:08:15;11.73;;;4.88;;
26536;SDS011;14204;51.262;5.488;2023-07-31T12:10:41;6.38;;;3.92;;
26536;SDS011;14204;51.262;5.488;2023-07-31T12:13:19;6.97;;;4.45;;
26536;SDS011;14204;51.262;5.488;2023-07-31T12:15:53;10.60;;;4.90;;
26536;SDS011;14204;51.262;5.488;2023-07-31T12:18:21;9.82;;;5.50;;
26536;SDS011;14204;51.262;5.488;2023-07-31T12:20:48;10.75;;;4.38;;
26536;SDS011;14204;51.262;5.488;2023-07-31T12:23:19;10.45;;;5.55;;
26536;SDS011;14204;51.262;5.488;2023-07-31T12:26:06;7.30;;;5.93;;
26536;SDS011;14204;51.262;5.488;2023-07-31T12:31:05;10.10;;;5.55;;
26536;SDS011;14204;51.262;5.488;2023-07-31T12:33:32;7.15;;;5.10;;
26536;SDS011;14204;51.262;5.488;2023-07-31T12:36:03;7.50;;;5.60;;
26536;SDS011;14204;51.262;5.488;2023-07-31T12:38:31;9.63;;;5.07;;
26536;SDS011;14204;51.262;5.488;2023-07-31T12:40:58;9.90;;;5.05;;
26536;SDS011;14204;51.262;5.488;2023-07-31T12:43:23;11.02;;;5.75;;
26536;SDS011;14204;51.262;5.488;2023-07-31T12:45:49;8.93;;;5.57;;
26536;SDS011;14204;51.262;5.488;2023-07-31T12:48:15;11.15;;;4.88;;
26536;SDS011;14204;51.262;5.488;2023-07-31T12:50:41;12.60;;;6.13;;
26536;SDS011;14204;51.262;5.488;2023-07-31T12:53:06;8.95;;;6.15;;
26536;SDS011;14204;51.262;5.488;2023-07-31T12:55:33;9.85;;;5.95;;
26536;SDS011;14204;51.262;5.488;2023-07-31T12:58:02;12.10;;;5.95;;
26536;SDS011;14204;51.262;5.488;2023-07-31T13:00:28;13.52;;;6.00;;
26536;SDS011;14204;51.262;5.488;2023-07-31T13:02:54;11.00;;;5.32;;
26536;SDS011;14204;51.262;5.488;2023-07-31T13:05:20;10.50;;;5.32;;
26536;SDS011;14204;51.262;5.488;2023-07-31T13:07:46;11.00;;;6.00;;
26536;SDS011;14204;51.262;5.488;2023-07-31T13:10:13;10.45;;;5.88;;
26536;SDS011;14204;51.262;5.488;2023-07-31T13:12:38;9.50;;;5.80;;
26536;SDS011;14204;51.262;5.488;2023-07-31T13:15:05;12.20;;;5.95;;
26536;SDS011;14204;51.262;5.488;2023-07-31T13:17:31;12.73;;;6.22;;
26536;SDS011;14204;51.262;5.488;2023-07-31T13:19:57;14.68;;;5.65;;
26536;SDS011;14204;51.262;5.488;2023-07-31T13:22:23;8.70;;;5.30;;
26536;SDS011;14204;51.262;5.488;2023-07-31T13:24:49;9.20;;;5.95;;
26536;SDS011;14204;51.262;5.488;2023-07-31T13:27:15;10.18;;;5.55;;
26536;SDS011;14204;51.262;5.488;2023-07-31T13:29:45;10.30;;;5.90;;
26536;SDS011;14204;51.262;5.488;2023-07-31T13:32:11;8.40;;;5.20;;
26536;SDS011;14204;51.262;5.488;2023-07-31T13:34:37;10.10;;;5.75;;
26536;SDS011;14204;51.262;5.488;2023-07-31T13:37:03;11.18;;;5.88;;
26536;SDS011;14204;51.262;5.488;2023-07-31T13:39:31;9.60;;;6.03;;
26536;SDS011;14204;51.262;5.488;2023-07-31T13:41:57;11.07;;;5.97;;
26536;SDS011;14204;51.262;5.488;2023-07-31T13:44:23;8.80;;;5.88;;
26536;SDS011;14204;51.262;5.488;2023-07-31T13:46:49;12.68;;;6.32;;
26536;SDS011;14204;51.262;5.488;2023-07-31T13:49:15;9.27;;;6.32;;
26536;SDS011;14204;51.262;5.488;2023-07-31T13:51:40;11.35;;;6.38;;
26536;SDS011;14204;51.262;5.488;2023-07-31T13:54:06;12.88;;;5.45;;
26536;SDS011;14204;51.262;5.488;2023-07-31T13:56:32;12.68;;;6.53;;
26536;SDS011;14204;51.262;5.488;2023-07-31T13:58:58;11.63;;;6.80;;
26536;SDS011;14204;51.262;5.488;2023-07-31T14:01:26;12.55;;;7.03;;
26536;SDS011;14204;51.262;5.488;2023-07-31T14:03:52;10.98;;;6.63;;
26536;SDS011;14204;51.262;5.488;2023-07-31T14:06:19;11.05;;;6.45;;
26536;SDS011;14204;51.262;5.488;2023-07-31T14:08:44;12.95;;;7.53;;
26536;SDS011;14204;51.262;5.488;2023-07-31T14:11:10;12.23;;;6.78;;
26536;SDS011;14204;51.262;5.488;2023-07-31T14:13:36;11.50;;;7.05;;
26536;SDS011;14204;51.262;5.488;2023-07-31T14:16:02;11.18;;;7.15;;
26536;SDS011;14204;51.262;5.488;2023-07-31T14:18:27;13.63;;;6.63;;
26536;SDS011;14204;51.262;5.488;2023-07-31T14:20:53;9.75;;;6.40;;
26536;SDS011;14204;51.262;5.488;2023-07-31T14:23:19;8.20;;;5.90;;
26536;SDS011;14204;51.262;5.488;2023-07-31T14:25:47;9.75;;;5.78;;
26536;SDS011;14204;51.262;5.488;2023-07-31T14:28:13;9.50;;;6.30;;
26536;SDS011;14204;51.262;5.488;2023-07-31T14:30:39;11.98;;;5.97;;
26536;SDS011;14204;51.262;5.488;2023-07-31T14:33:05;8.80;;;4.95;;
26536;SDS011;14204;51.262;5.488;2023-07-31T14:35:30;11.80;;;5.68;;
26536;SDS011;14204;51.262;5.488;2023-07-31T14:37:56;10.00;;;5.70;;
26536;SDS011;14204;51.262;5.488;2023-07-31T14:40:22;10.57;;;5.65;;
26536;SDS011;14204;51.262;5.488;2023-07-31T14:42:47;10.85;;;5.95;;
26536;SDS011;14204;51.262;5.488;2023-07-31T14:45:13;10.35;;;6.05;;
26536;SDS011;14204;51.262;5.488;2023-07-31T14:47:39;10.90;;;6.28;;
26536;SDS011;14204;51.262;5.488;2023-07-31T14:53:43;12.40;;;6.47;;
26536;SDS011;14204;51.262;5.488;2023-07-31T14:56:09;14.27;;;7.07;;
26536;SDS011;14204;51.262;5.488;2023-07-31T14:58:35;16.77;;;7.47;;